createdAt,value
2019-03-19T00:00:41.525Z,74
2019-03-19T00:01:43.693Z,74
2019-03-19T00:02:45.847Z,74
2019-03-19T00:03:47.986Z,74
2019-03-19T00:04:50.109Z,74
2019-03-19T00:05:52.560Z,74
2019-03-19T00:06:55.116Z,74
2019-03-19T00:07:57.225Z,74
2019-03-19T00:08:59.665Z,74
2019-03-19T00:10:01.879Z,74
2019-03-19T00:11:04.328Z,74
2019-03-19T00:12:06.782Z,74
2019-03-19T00:13:08.901Z,74
2019-03-19T00:14:11.054Z,74
2019-03-19T00:15:13.197Z,74
2019-03-19T00:16:15.325Z,74
2019-03-19T00:17:17.588Z,74
2019-03-19T00:18:20.056Z,74
2019-03-19T00:19:23.848Z,74
2019-03-19T00:20:26.014Z,74
2019-03-19T00:21:28.301Z,74
2019-03-19T00:22:30.681Z,74
2019-03-19T00:23:33.176Z,74
2019-03-19T00:24:35.265Z,74
2019-03-19T00:25:37.417Z,74
2019-03-19T00:26:39.514Z,74
2019-03-19T00:27:41.606Z,74
2019-03-19T00:28:44.310Z,74
2019-03-19T00:29:46.448Z,74
2019-03-19T00:30:48.584Z,74
2019-03-19T00:31:51.084Z,74
2019-03-19T00:32:53.198Z,75
2019-03-19T00:33:55.385Z,75
2019-03-19T00:34:57.451Z,74
2019-03-19T00:35:59.838Z,75
2019-03-19T00:37:01.959Z,74
2019-03-19T00:38:04.062Z,74
2019-03-19T00:39:06.179Z,75
2019-03-19T00:40:08.270Z,75
2019-03-19T00:41:10.413Z,75
2019-03-19T00:42:12.563Z,75
2019-03-19T00:43:15.063Z,75
2019-03-19T00:44:17.145Z,75
2019-03-19T00:45:19.233Z,75
2019-03-19T00:46:21.353Z,75
2019-03-19T00:47:23.436Z,75
2019-03-19T00:48:25.533Z,75
2019-03-19T00:49:27.622Z,75
2019-03-19T00:50:29.803Z,75
2019-03-19T00:51:31.927Z,75
2019-03-19T00:52:34.077Z,75
2019-03-19T00:53:36.172Z,75
2019-03-19T00:54:38.305Z,75
2019-03-19T00:55:41.968Z,75
2019-03-19T00:56:44.085Z,75
2019-03-19T00:57:46.226Z,75
2019-03-19T00:58:48.652Z,75
2019-03-19T00:59:50.757Z,75
2019-03-19T01:00:53.198Z,75
2019-03-19T01:01:55.366Z,75
2019-03-19T01:02:57.439Z,75
2019-03-19T01:03:59.551Z,75
2019-03-19T01:05:01.677Z,75
2019-03-19T01:06:03.804Z,75
2019-03-19T01:07:05.974Z,75
2019-03-19T01:08:08.083Z,76
2019-03-19T01:09:10.217Z,75
2019-03-19T01:10:12.693Z,75
2019-03-19T01:11:15.065Z,76
2019-03-19T01:12:17.203Z,75
2019-03-19T01:13:19.282Z,75
2019-03-19T01:14:21.382Z,75
2019-03-19T01:15:23.522Z,75
2019-03-19T01:16:25.647Z,75
2019-03-19T01:17:27.794Z,75
2019-03-19T01:18:29.911Z,75
2019-03-19T01:19:32.038Z,75
2019-03-19T01:20:34.175Z,75
2019-03-19T01:21:36.289Z,75
2019-03-19T01:22:38.419Z,75
2019-03-19T01:23:40.526Z,75
2019-03-19T01:24:42.684Z,75
2019-03-19T01:25:57.423Z,75
2019-03-19T01:26:59.598Z,75
2019-03-19T01:28:01.727Z,75
2019-03-19T01:29:03.850Z,75
2019-03-19T01:30:05.961Z,75
2019-03-19T01:31:08.422Z,75
2019-03-19T01:32:10.558Z,75
2019-03-19T01:33:12.726Z,75
2019-03-19T01:34:15.138Z,75
2019-03-19T01:35:17.288Z,75
2019-03-19T01:36:19.401Z,76
2019-03-19T01:37:21.562Z,75
2019-03-19T01:38:23.678Z,75
2019-03-19T01:39:26.524Z,75
2019-03-19T01:40:29.052Z,75
2019-03-19T01:41:31.528Z,75
2019-03-19T01:42:33.683Z,75
2019-03-19T01:43:35.817Z,75
2019-03-19T01:44:38.256Z,75
2019-03-19T01:45:40.832Z,75
2019-03-19T01:46:43.273Z,75
2019-03-19T01:47:46.100Z,75
2019-03-19T01:48:48.228Z,75
2019-03-19T01:49:50.343Z,75
2019-03-19T01:50:52.456Z,75
2019-03-19T01:51:54.592Z,75
2019-03-19T01:52:57.119Z,75
2019-03-19T01:53:59.249Z,75
2019-03-19T01:55:01.415Z,75
2019-03-19T01:56:06.488Z,75
2019-03-19T01:57:08.625Z,75
2019-03-19T01:58:10.744Z,75
2019-03-19T01:59:12.880Z,75
2019-03-19T02:00:15.039Z,75
2019-03-19T02:01:17.163Z,75
2019-03-19T02:02:19.681Z,76
2019-03-19T02:03:21.841Z,75
2019-03-19T02:04:23.974Z,75
2019-03-19T02:05:26.125Z,75
2019-03-19T02:06:28.256Z,75
2019-03-19T02:07:30.685Z,75
2019-03-19T02:08:32.811Z,76
2019-03-19T02:09:34.952Z,76
2019-03-19T02:10:37.384Z,75
2019-03-19T02:11:40.006Z,76
2019-03-19T02:12:42.135Z,76
2019-03-19T02:13:44.291Z,76
2019-03-19T02:14:46.433Z,76
2019-03-19T02:15:48.563Z,76
2019-03-19T02:16:50.668Z,76
2019-03-19T02:17:52.781Z,76
2019-03-19T02:18:54.957Z,76
2019-03-19T02:19:57.066Z,77
2019-03-19T02:20:59.241Z,77
2019-03-19T02:22:01.469Z,77
2019-03-19T02:23:05.643Z,77
2019-03-19T02:24:07.779Z,77
2019-03-19T02:25:09.915Z,77
2019-03-19T02:26:17.859Z,78
2019-03-19T02:27:20.263Z,78
2019-03-19T02:28:22.405Z,78
2019-03-19T02:29:24.546Z,78
2019-03-19T02:30:26.766Z,78
2019-03-19T02:31:29.919Z,78
2019-03-19T02:32:32.471Z,78
2019-03-19T02:33:34.642Z,78
2019-03-19T02:34:37.252Z,79
2019-03-19T02:35:39.401Z,78
2019-03-19T02:36:41.918Z,79
2019-03-19T02:37:44.382Z,79
2019-03-19T02:38:46.614Z,79
2019-03-19T02:39:49.077Z,79
2019-03-19T02:40:51.639Z,79
2019-03-19T02:41:53.849Z,79
2019-03-19T02:42:55.987Z,80
2019-03-19T02:43:58.487Z,80
2019-03-19T02:45:01.361Z,80
2019-03-19T02:46:04.019Z,80
2019-03-19T02:47:06.420Z,80
2019-03-19T02:48:09.143Z,80
2019-03-19T02:49:12.043Z,80
2019-03-19T02:50:14.522Z,80
2019-03-19T02:51:16.993Z,80
2019-03-19T02:52:19.548Z,80
2019-03-19T02:53:22.465Z,80
2019-03-19T02:54:24.620Z,80
2019-03-19T02:55:26.835Z,80
2019-03-19T02:56:35.229Z,81
2019-03-19T02:57:37.648Z,81
2019-03-19T02:58:39.808Z,81
2019-03-19T02:59:42.808Z,81
2019-03-19T03:00:44.943Z,81
2019-03-19T03:01:47.670Z,81
2019-03-19T03:02:49.821Z,81
2019-03-19T03:03:51.996Z,81
2019-03-19T03:04:54.113Z,81
2019-03-19T03:05:56.254Z,81
2019-03-19T03:06:58.417Z,81
2019-03-19T03:08:00.583Z,81
2019-03-19T03:09:03.151Z,81
2019-03-19T03:10:05.628Z,81
2019-03-19T03:11:08.408Z,81
2019-03-19T03:12:10.966Z,81
2019-03-19T03:13:13.507Z,81
2019-03-19T03:14:15.934Z,81
2019-03-19T03:15:18.847Z,82
2019-03-19T03:16:21.052Z,82
2019-03-19T03:17:23.529Z,82
2019-03-19T03:18:25.652Z,82
2019-03-19T03:19:28.379Z,82
2019-03-19T03:20:30.545Z,82
2019-03-19T03:21:36.008Z,82
2019-03-19T03:22:38.260Z,82
2019-03-19T03:23:40.420Z,81
2019-03-19T03:24:42.544Z,82
2019-03-19T03:25:44.993Z,82
2019-03-19T03:26:49.668Z,82
2019-03-19T03:27:52.151Z,82
2019-03-19T03:28:54.616Z,82
2019-03-19T03:29:56.822Z,82
2019-03-19T03:30:59.267Z,82
2019-03-19T03:32:01.536Z,82
2019-03-19T03:33:04.621Z,82
2019-03-19T03:34:07.926Z,82
2019-03-19T03:35:10.188Z,82
2019-03-19T03:36:13.009Z,82
2019-03-19T03:37:15.848Z,82
2019-03-19T03:38:18.408Z,82
2019-03-19T03:39:21.133Z,82
2019-03-19T03:40:23.850Z,82
2019-03-19T03:41:26.064Z,82
2019-03-19T03:42:28.877Z,82
2019-03-19T03:43:31.315Z,82
2019-03-19T03:44:33.487Z,82
2019-03-19T03:45:35.880Z,82
2019-03-19T03:46:38.486Z,82
2019-03-19T03:47:41.244Z,82
2019-03-19T03:48:43.792Z,82
2019-03-19T03:49:45.917Z,82
2019-03-19T03:50:48.081Z,82
2019-03-19T03:51:50.264Z,82
2019-03-19T03:52:52.721Z,82
2019-03-19T03:53:55.554Z,82
2019-03-19T03:54:58.442Z,82
2019-03-19T03:56:00.564Z,82
2019-03-19T03:57:04.682Z,82
2019-03-19T03:58:07.129Z,82
2019-03-19T03:59:09.238Z,82
2019-03-19T04:00:11.694Z,82
2019-03-19T04:01:14.112Z,82
2019-03-19T04:02:16.538Z,82
2019-03-19T04:03:18.682Z,82
2019-03-19T04:04:21.497Z,81
2019-03-19T04:05:23.801Z,81
2019-03-19T04:06:26.223Z,81
2019-03-19T04:07:29.018Z,81
2019-03-19T04:08:31.197Z,81
2019-03-19T04:09:33.721Z,81
2019-03-19T04:10:35.873Z,81
2019-03-19T04:11:38.065Z,82
2019-03-19T04:12:40.260Z,81
2019-03-19T04:13:42.430Z,82
2019-03-19T04:14:48.240Z,81
2019-03-19T04:15:50.390Z,81
2019-03-19T04:16:53.217Z,81
2019-03-19T04:17:56.132Z,82
2019-03-19T04:18:58.540Z,82
2019-03-19T04:20:00.980Z,82
2019-03-19T04:21:03.122Z,81
2019-03-19T04:22:05.632Z,81
2019-03-19T04:23:07.791Z,81
2019-03-19T04:24:10.032Z,81
2019-03-19T04:25:12.270Z,81
2019-03-19T04:26:15.046Z,81
2019-03-19T04:27:18.545Z,81
2019-03-19T04:28:20.741Z,81
2019-03-19T04:29:23.324Z,81
2019-03-19T04:30:25.852Z,81
2019-03-19T04:31:28.739Z,81
2019-03-19T04:32:30.894Z,82
2019-03-19T04:33:33.021Z,82
2019-03-19T04:34:35.126Z,82
2019-03-19T04:35:37.317Z,82
2019-03-19T04:36:39.522Z,82
2019-03-19T04:37:42.398Z,82
2019-03-19T04:38:44.861Z,82
2019-03-19T04:39:47.029Z,82
2019-03-19T04:40:50.686Z,82
2019-03-19T04:41:53.609Z,82
2019-03-19T04:42:56.126Z,82
2019-03-19T04:43:58.943Z,82
2019-03-19T04:45:01.278Z,82
2019-03-19T04:46:03.417Z,82
2019-03-19T04:47:05.843Z,82
2019-03-19T04:48:08.347Z,82
2019-03-19T04:49:10.497Z,82
2019-03-19T04:50:12.646Z,82
2019-03-19T04:51:15.057Z,82
2019-03-19T04:52:17.240Z,82
2019-03-19T04:53:19.454Z,82
2019-03-19T04:54:21.598Z,82
2019-03-19T04:55:23.757Z,82
2019-03-19T04:56:25.877Z,82
2019-03-19T04:57:28.229Z,82
2019-03-19T04:58:30.344Z,82
2019-03-19T04:59:32.460Z,83
2019-03-19T05:00:34.566Z,83
2019-03-19T05:01:36.694Z,83
2019-03-19T05:02:38.821Z,83
2019-03-19T05:03:40.933Z,83
2019-03-19T05:04:43.042Z,83
2019-03-19T05:05:46.014Z,83
2019-03-19T05:06:48.406Z,83
2019-03-19T05:07:50.531Z,83
2019-03-19T05:08:52.644Z,83
2019-03-19T05:09:54.756Z,83
2019-03-19T05:10:56.868Z,83
2019-03-19T05:11:59.550Z,83
2019-03-19T05:13:01.843Z,83
2019-03-19T05:14:03.996Z,83
2019-03-19T05:15:06.124Z,83
2019-03-19T05:16:08.583Z,83
2019-03-19T05:17:10.718Z,84
2019-03-19T05:18:12.858Z,84
2019-03-19T05:19:14.974Z,84
2019-03-19T05:20:17.803Z,83
2019-03-19T05:21:19.978Z,83
2019-03-19T05:22:22.408Z,83
2019-03-19T05:23:24.520Z,83
2019-03-19T05:24:26.619Z,83
2019-03-19T05:25:29.431Z,83
2019-03-19T05:26:31.530Z,83
2019-03-19T05:27:39.098Z,82
2019-03-19T05:28:41.205Z,83
2019-03-19T05:29:43.406Z,83
2019-03-19T05:30:45.826Z,83
2019-03-19T05:31:47.944Z,83
2019-03-19T05:32:50.068Z,83
2019-03-19T05:33:52.178Z,83
2019-03-19T05:34:54.321Z,83
2019-03-19T05:35:56.442Z,83
2019-03-19T05:36:59.543Z,83
2019-03-19T05:38:01.985Z,83
2019-03-19T05:39:04.403Z,84
2019-03-19T05:40:06.510Z,84
2019-03-19T05:41:08.637Z,84
2019-03-19T05:42:10.764Z,84
2019-03-19T05:43:13.176Z,84
2019-03-19T05:44:15.299Z,84
2019-03-19T05:45:18.113Z,84
2019-03-19T05:46:20.898Z,84
2019-03-19T05:47:23.022Z,84
2019-03-19T05:48:25.532Z,84
2019-03-19T05:49:27.639Z,84
2019-03-19T05:50:29.764Z,84
2019-03-19T05:51:31.876Z,84
2019-03-19T05:52:34.315Z,84
2019-03-19T05:53:36.417Z,84
2019-03-19T05:54:38.532Z,84
2019-03-19T05:55:40.653Z,84
2019-03-19T05:56:43.049Z,84
2019-03-19T05:57:51.318Z,84
2019-03-19T05:58:53.831Z,84
2019-03-19T05:59:55.937Z,84
2019-03-19T06:00:58.085Z,84
2019-03-19T06:02:00.587Z,84
2019-03-19T06:03:03.007Z,84
2019-03-19T06:04:05.169Z,84
2019-03-19T06:05:07.287Z,84
2019-03-19T06:06:09.408Z,84
2019-03-19T06:07:11.522Z,84
2019-03-19T06:08:14.311Z,84
2019-03-19T06:09:16.431Z,84
2019-03-19T06:10:18.541Z,84
2019-03-19T06:11:20.669Z,84
2019-03-19T06:12:23.098Z,84
2019-03-19T06:13:25.200Z,83
2019-03-19T06:14:27.651Z,84
2019-03-19T06:15:29.764Z,84
2019-03-19T06:16:31.874Z,84
2019-03-19T06:17:33.997Z,84
2019-03-19T06:18:36.906Z,84
2019-03-19T06:19:39.289Z,83
2019-03-19T06:20:41.419Z,83
2019-03-19T06:21:43.538Z,83
2019-03-19T06:22:45.674Z,83
2019-03-19T06:23:47.814Z,83
2019-03-19T06:24:49.918Z,83
2019-03-19T06:25:52.434Z,83
2019-03-19T06:26:54.555Z,83
2019-03-19T06:28:01.772Z,83
2019-03-19T06:29:03.887Z,83
2019-03-19T06:30:05.998Z,82
2019-03-19T06:31:08.421Z,82
2019-03-19T06:32:10.858Z,82
2019-03-19T06:33:12.960Z,82
2019-03-19T06:34:15.081Z,82
2019-03-19T06:35:17.218Z,82
2019-03-19T06:36:19.655Z,82
2019-03-19T06:37:21.757Z,82
2019-03-19T06:38:23.893Z,82
2019-03-19T06:39:26.020Z,82
2019-03-19T06:40:28.120Z,82
2019-03-19T06:41:30.538Z,82
2019-03-19T06:42:32.714Z,82
2019-03-19T06:43:34.823Z,82
2019-03-19T06:44:37.219Z,82
2019-03-19T06:45:39.650Z,81
2019-03-19T06:46:41.764Z,81
2019-03-19T06:47:44.275Z,81
2019-03-19T06:48:46.388Z,81
2019-03-19T06:49:48.500Z,81
2019-03-19T06:50:50.907Z,81
2019-03-19T06:51:53.033Z,81
2019-03-19T06:52:55.150Z,81
2019-03-19T06:53:57.552Z,81
2019-03-19T06:54:59.955Z,81
2019-03-19T06:56:02.193Z,80
2019-03-19T06:57:04.633Z,80
2019-03-19T06:58:12.583Z,80
2019-03-19T06:59:14.710Z,80
2019-03-19T07:00:16.871Z,80
2019-03-19T07:01:19.011Z,80
2019-03-19T07:02:21.119Z,80
2019-03-19T07:03:23.929Z,80
2019-03-19T07:04:26.107Z,79
2019-03-19T07:05:28.511Z,79
2019-03-19T07:06:31.033Z,79
2019-03-19T07:07:33.163Z,78
2019-03-19T07:08:35.290Z,78
2019-03-19T07:09:37.395Z,78
2019-03-19T07:10:39.522Z,78
2019-03-19T07:11:41.936Z,78
2019-03-19T07:12:44.334Z,78
2019-03-19T07:13:46.477Z,79
2019-03-19T07:14:48.579Z,79
2019-03-19T07:15:50.708Z,78
2019-03-19T07:16:53.123Z,78
2019-03-19T07:17:55.252Z,78
2019-03-19T07:18:57.429Z,78
2019-03-19T07:19:59.571Z,78
2019-03-19T07:21:01.677Z,78
2019-03-19T07:22:03.803Z,78
2019-03-19T07:23:06.923Z,78
2019-03-19T07:24:09.062Z,78
2019-03-19T07:25:11.580Z,78
2019-03-19T07:26:13.723Z,78
2019-03-19T07:27:15.827Z,78
2019-03-19T07:28:23.593Z,78
2019-03-19T07:29:25.755Z,77
2019-03-19T07:30:28.460Z,77
2019-03-19T07:31:32.143Z,77
2019-03-19T07:32:34.260Z,77
2019-03-19T07:33:36.777Z,76
2019-03-19T07:34:39.160Z,76
2019-03-19T07:35:41.291Z,77
2019-03-19T07:36:43.425Z,76
2019-03-19T07:37:45.538Z,75
2019-03-19T07:38:47.761Z,75
2019-03-19T07:39:49.883Z,75
2019-03-19T07:40:52.001Z,74
2019-03-19T07:41:54.421Z,74
2019-03-19T07:42:56.948Z,74
2019-03-19T07:43:59.053Z,73
2019-03-19T07:45:01.298Z,74
2019-03-19T07:46:03.418Z,74
2019-03-19T07:47:05.521Z,73
2019-03-19T07:48:07.951Z,74
2019-03-19T07:49:10.076Z,72
2019-03-19T07:50:12.201Z,73
2019-03-19T07:51:14.371Z,72
2019-03-19T07:52:16.482Z,73
2019-03-19T07:53:18.615Z,72
2019-03-19T07:54:21.016Z,71
2019-03-19T07:55:23.430Z,71
2019-03-19T07:56:25.565Z,71
2019-03-19T07:57:30.173Z,70
2019-03-19T07:58:46.465Z,71
2019-03-19T07:59:48.593Z,70
2019-03-19T08:00:50.991Z,71
2019-03-19T08:01:53.112Z,71
2019-03-19T08:02:55.247Z,71
2019-03-19T08:03:57.342Z,71
2019-03-19T08:04:59.473Z,71
2019-03-19T08:06:01.885Z,72
2019-03-19T08:07:04.039Z,71
2019-03-19T08:08:06.543Z,71
2019-03-19T08:09:08.682Z,71
2019-03-19T08:10:10.912Z,70
2019-03-19T08:11:16.602Z,71
2019-03-19T08:12:18.894Z,70
2019-03-19T08:13:21.025Z,71
2019-03-19T08:14:23.180Z,70
2019-03-19T08:15:25.294Z,71
2019-03-19T08:16:28.641Z,71
2019-03-19T08:17:30.755Z,71
2019-03-19T08:18:32.897Z,71
2019-03-19T08:19:35.023Z,70
2019-03-19T08:20:37.123Z,70
2019-03-19T08:21:39.264Z,70
2019-03-19T08:22:41.384Z,70
2019-03-19T08:23:43.505Z,70
2019-03-19T08:24:45.627Z,69
2019-03-19T08:25:48.034Z,70
2019-03-19T08:26:50.162Z,69
2019-03-19T08:27:52.580Z,70
2019-03-19T08:28:56.543Z,71
2019-03-19T08:29:58.670Z,70
2019-03-19T08:31:00.784Z,69
2019-03-19T08:32:02.892Z,69
2019-03-19T08:33:05.033Z,69
2019-03-19T08:34:07.459Z,69
2019-03-19T08:35:09.593Z,69
2019-03-19T08:36:11.732Z,69
2019-03-19T08:37:16.201Z,69
2019-03-19T08:38:18.318Z,70
2019-03-19T08:39:21.713Z,69
2019-03-19T08:40:23.869Z,69
2019-03-19T08:41:25.985Z,68
2019-03-19T08:42:28.192Z,69
2019-03-19T08:43:30.323Z,69
2019-03-19T08:44:32.817Z,69
2019-03-19T08:45:34.964Z,69
2019-03-19T08:46:37.357Z,68
2019-03-19T08:47:39.473Z,68
2019-03-19T08:48:42.159Z,68
2019-03-19T08:49:44.299Z,68
2019-03-19T08:50:46.797Z,68
2019-03-19T08:51:48.922Z,68
2019-03-19T08:52:51.042Z,68
2019-03-19T08:53:53.430Z,68
2019-03-19T08:54:55.567Z,68
2019-03-19T08:55:57.689Z,68
2019-03-19T08:57:00.118Z,68
2019-03-19T08:58:02.232Z,68
2019-03-19T08:59:07.113Z,68
2019-03-19T09:00:09.222Z,68
2019-03-19T09:01:11.353Z,69
2019-03-19T09:02:13.479Z,68
2019-03-19T09:03:15.642Z,68
2019-03-19T09:04:18.050Z,68
2019-03-19T09:05:20.168Z,68
2019-03-19T09:06:22.314Z,67
2019-03-19T09:07:24.428Z,68
2019-03-19T09:08:26.562Z,68
2019-03-19T09:09:28.693Z,68
2019-03-19T09:10:30.813Z,68
2019-03-19T09:11:33.215Z,68
2019-03-19T09:12:35.331Z,66
2019-03-19T09:13:37.462Z,66
2019-03-19T09:14:39.571Z,66
2019-03-19T09:15:43.443Z,65
2019-03-19T09:16:45.575Z,66
2019-03-19T09:17:47.705Z,65
2019-03-19T09:18:50.449Z,66
2019-03-19T09:19:52.561Z,65
2019-03-19T09:20:55.019Z,66
2019-03-19T09:21:57.434Z,66
2019-03-19T09:22:59.575Z,64
2019-03-19T09:24:01.707Z,64
2019-03-19T09:25:04.120Z,65
2019-03-19T09:26:06.839Z,65
2019-03-19T09:27:08.984Z,65
2019-03-19T09:28:11.110Z,63
2019-03-19T09:29:18.125Z,64
2019-03-19T09:30:20.830Z,64
2019-03-19T09:31:22.955Z,63
2019-03-19T09:32:25.398Z,63
2019-03-19T09:33:27.506Z,63
2019-03-19T09:34:30.029Z,62
2019-03-19T09:35:32.160Z,64
2019-03-19T09:36:34.661Z,63
2019-03-19T09:37:36.797Z,61
2019-03-19T09:38:46.028Z,61
2019-03-19T09:39:48.141Z,60
2019-03-19T09:40:50.293Z,60
2019-03-19T09:41:52.415Z,60
2019-03-19T09:42:54.532Z,59
2019-03-19T09:43:56.677Z,60
2019-03-19T09:45:00.077Z,58
2019-03-19T09:46:02.483Z,58
2019-03-19T09:47:04.591Z,58
2019-03-19T09:48:06.735Z,59
2019-03-19T09:49:08.868Z,59
2019-03-19T09:50:11.001Z,59
2019-03-19T09:51:13.134Z,60
2019-03-19T09:52:15.266Z,60
2019-03-19T09:53:19.697Z,60
2019-03-19T09:54:21.838Z,60
2019-03-19T09:55:23.972Z,58
2019-03-19T09:56:26.374Z,59
2019-03-19T09:57:28.507Z,60
2019-03-19T09:58:30.624Z,60
2019-03-19T09:59:32.752Z,59
2019-03-19T10:00:34.896Z,59
2019-03-19T10:01:37.294Z,60
2019-03-19T10:02:39.733Z,58
2019-03-19T10:03:41.886Z,60
2019-03-19T10:04:44.019Z,59
2019-03-19T10:05:46.134Z,59
2019-03-19T10:06:48.651Z,60
2019-03-19T10:07:51.499Z,59
2019-03-19T10:08:53.633Z,59
2019-03-19T10:09:55.792Z,59
2019-03-19T10:10:57.959Z,59
2019-03-19T10:12:00.092Z,59
2019-03-19T10:13:02.580Z,59
2019-03-19T10:14:04.711Z,59
2019-03-19T10:15:06.848Z,59
2019-03-19T10:16:08.985Z,58
2019-03-19T10:17:11.110Z,58
2019-03-19T10:18:13.519Z,57
2019-03-19T10:19:15.642Z,59
2019-03-19T10:20:19.131Z,59
2019-03-19T10:21:21.256Z,58
2019-03-19T10:22:23.381Z,57
2019-03-19T10:23:25.574Z,57
2019-03-19T10:24:27.708Z,56
2019-03-19T10:25:30.131Z,55
2019-03-19T10:26:32.265Z,55
2019-03-19T10:27:34.701Z,56
2019-03-19T10:28:36.848Z,56
2019-03-19T10:29:39.719Z,57
2019-03-19T10:30:41.861Z,56
2019-03-19T10:31:43.986Z,55
2019-03-19T10:32:46.383Z,55
2019-03-19T10:33:48.508Z,57
2019-03-19T10:34:50.819Z,54
2019-03-19T10:35:52.868Z,55
2019-03-19T10:36:54.915Z,55
2019-03-19T10:37:56.959Z,55
2019-03-19T10:38:58.992Z,56
2019-03-19T10:40:01.231Z,55
2019-03-19T10:41:03.315Z,54
2019-03-19T10:42:06.048Z,55
2019-03-19T10:43:08.093Z,54
2019-03-19T10:44:10.449Z,54
2019-03-19T10:45:12.484Z,55
2019-03-19T10:46:15.811Z,52
2019-03-19T10:47:17.854Z,52
2019-03-19T10:48:20.033Z,52
2019-03-19T10:49:22.076Z,52
2019-03-19T10:50:24.107Z,51
2019-03-19T10:51:26.325Z,52
2019-03-19T10:52:28.975Z,52
2019-03-19T10:53:31.046Z,52
2019-03-19T10:54:33.074Z,53
2019-03-19T10:55:35.229Z,52
2019-03-19T10:56:40.127Z,52
2019-03-19T10:57:42.551Z,53
2019-03-19T10:58:44.767Z,53
2019-03-19T10:59:50.305Z,52
2019-03-19T11:00:52.738Z,52
2019-03-19T11:01:55.077Z,51
2019-03-19T11:02:57.184Z,52
2019-03-19T11:03:59.238Z,50
2019-03-19T11:05:01.442Z,51
2019-03-19T11:06:03.785Z,50
2019-03-19T11:07:05.834Z,48
2019-03-19T11:08:07.877Z,47
2019-03-19T11:09:10.243Z,48
2019-03-19T11:10:12.289Z,48
2019-03-19T11:11:14.375Z,49
2019-03-19T11:12:16.699Z,48
2019-03-19T11:13:19.042Z,48
2019-03-19T11:14:21.103Z,47
2019-03-19T11:15:23.140Z,48
2019-03-19T11:16:25.282Z,48
2019-03-19T11:17:29.339Z,48
2019-03-19T11:18:31.472Z,48
2019-03-19T11:19:33.544Z,49
2019-03-19T11:20:35.648Z,49
2019-03-19T11:21:37.688Z,49
2019-03-19T11:22:40.068Z,49
2019-03-19T11:23:42.112Z,49
2019-03-19T11:24:44.159Z,49
2019-03-19T11:25:55.527Z,48
2019-03-19T11:26:57.637Z,47
2019-03-19T11:27:59.722Z,49
2019-03-19T11:29:01.817Z,48
2019-03-19T11:30:06.740Z,49
2019-03-19T11:31:08.802Z,50
2019-03-19T11:32:10.978Z,50
2019-03-19T11:33:13.013Z,51
2019-03-19T11:34:15.125Z,50
2019-03-19T11:35:17.178Z,50
2019-03-19T11:36:19.251Z,50
2019-03-19T11:37:21.334Z,49
2019-03-19T11:38:23.374Z,48
2019-03-19T11:39:25.495Z,50
2019-03-19T11:40:27.567Z,48
2019-03-19T11:41:29.616Z,48
2019-03-19T11:42:31.984Z,48
2019-03-19T11:43:34.482Z,47
2019-03-19T11:44:36.545Z,48
2019-03-19T11:45:38.604Z,47
2019-03-19T11:46:40.651Z,47
2019-03-19T11:47:42.690Z,49
2019-03-19T11:48:44.865Z,48
2019-03-19T11:49:46.914Z,48
2019-03-19T11:50:49.304Z,48
2019-03-19T11:51:51.394Z,49
2019-03-19T11:52:53.456Z,49
2019-03-19T11:53:55.537Z,48
2019-03-19T11:54:57.574Z,49
2019-03-19T11:55:59.692Z,49
2019-03-19T11:57:02.398Z,50
2019-03-19T11:58:04.465Z,50
2019-03-19T11:59:07.089Z,50
2019-03-19T12:00:12.809Z,50
2019-03-19T12:01:14.886Z,50
2019-03-19T12:02:27.132Z,50
2019-03-19T12:03:29.187Z,51
2019-03-19T12:04:31.568Z,51
2019-03-19T12:05:33.628Z,52
2019-03-19T12:06:35.687Z,51
2019-03-19T12:07:38.116Z,51
2019-03-19T12:08:40.464Z,51
2019-03-19T12:09:42.522Z,52
2019-03-19T12:10:44.559Z,52
2019-03-19T12:11:46.613Z,52
2019-03-19T12:12:48.657Z,52
2019-03-19T12:13:50.690Z,52
2019-03-19T12:14:52.736Z,50
2019-03-19T12:15:54.780Z,50
2019-03-19T12:16:56.824Z,51
2019-03-19T12:17:58.871Z,51
2019-03-19T12:19:00.934Z,52
2019-03-19T12:20:03.639Z,51
2019-03-19T12:21:05.970Z,51
2019-03-19T12:22:08.010Z,51
2019-03-19T12:23:10.062Z,52
2019-03-19T12:24:12.434Z,51
2019-03-19T12:25:14.491Z,51
2019-03-19T12:26:16.526Z,52
2019-03-19T12:27:18.576Z,52
2019-03-19T12:28:20.634Z,51
2019-03-19T12:29:22.729Z,51
2019-03-19T12:30:27.644Z,48
2019-03-19T12:31:29.686Z,48
2019-03-19T12:32:31.735Z,48
2019-03-19T12:33:42.584Z,49
2019-03-19T12:34:44.638Z,48
2019-03-19T12:35:46.684Z,49
2019-03-19T12:36:48.747Z,48
2019-03-19T12:37:50.805Z,48
2019-03-19T12:38:52.860Z,49
2019-03-19T12:39:54.913Z,48
2019-03-19T12:40:56.966Z,48
2019-03-19T12:41:59.419Z,48
2019-03-19T12:43:01.454Z,48
2019-03-19T12:44:03.507Z,49
2019-03-19T12:45:05.825Z,49
2019-03-19T12:46:07.861Z,49
2019-03-19T12:47:09.920Z,50
2019-03-19T12:48:11.952Z,51
2019-03-19T12:49:14.004Z,51
2019-03-19T12:50:16.058Z,51
2019-03-19T12:51:18.102Z,52
2019-03-19T12:52:20.131Z,50
2019-03-19T12:53:22.170Z,51
2019-03-19T12:54:24.219Z,50
2019-03-19T12:55:26.267Z,51
2019-03-19T12:56:28.299Z,50
2019-03-19T12:57:30.629Z,50
2019-03-19T12:58:32.672Z,50
2019-03-19T12:59:34.713Z,50
2019-03-19T13:00:37.043Z,50
2019-03-19T13:01:39.454Z,49
2019-03-19T13:02:41.495Z,49
2019-03-19T13:03:43.553Z,48
2019-03-19T13:04:45.874Z,47
2019-03-19T13:05:47.965Z,46
2019-03-19T13:06:50.007Z,45
2019-03-19T13:07:52.109Z,45
2019-03-19T13:08:54.480Z,44
2019-03-19T13:09:56.529Z,45
2019-03-19T13:10:58.571Z,47
2019-03-19T13:12:00.604Z,46
2019-03-19T13:13:02.930Z,45
2019-03-19T13:14:04.987Z,44
2019-03-19T13:15:07.044Z,45
2019-03-19T13:16:09.065Z,45
2019-03-19T13:17:11.428Z,46
2019-03-19T13:18:13.493Z,46
2019-03-19T13:19:15.543Z,46
2019-03-19T13:20:17.631Z,46
2019-03-19T13:21:19.947Z,46
2019-03-19T13:22:22.274Z,47
2019-03-19T13:23:27.375Z,47
2019-03-19T13:24:29.441Z,47
2019-03-19T13:25:31.777Z,47
2019-03-19T13:26:33.848Z,46
2019-03-19T13:27:35.894Z,47
2019-03-19T13:28:37.934Z,46
2019-03-19T13:29:40.002Z,46
2019-03-19T13:30:46.516Z,46
2019-03-19T13:31:48.552Z,47
2019-03-19T13:32:50.613Z,46
2019-03-19T13:33:52.665Z,47
2019-03-19T13:34:54.695Z,48
2019-03-19T13:35:56.734Z,48
2019-03-19T13:36:59.874Z,48
2019-03-19T13:38:02.595Z,48
2019-03-19T13:39:04.950Z,46
2019-03-19T13:40:07.005Z,47
2019-03-19T13:41:09.034Z,47
2019-03-19T13:42:11.107Z,47
2019-03-19T13:43:13.148Z,46
2019-03-19T13:44:15.577Z,45
2019-03-19T13:45:17.638Z,46
2019-03-19T13:46:19.678Z,47
2019-03-19T13:47:21.723Z,46
2019-03-19T13:48:23.766Z,47
2019-03-19T13:49:26.116Z,46
2019-03-19T13:50:28.150Z,47
2019-03-19T13:51:30.200Z,46
2019-03-19T13:52:32.240Z,47
2019-03-19T13:53:34.854Z,47
2019-03-19T13:54:37.198Z,47
2019-03-19T13:55:39.529Z,47
2019-03-19T13:56:41.950Z,47
2019-03-19T13:57:44.006Z,47
2019-03-19T13:58:46.060Z,47
2019-03-19T13:59:48.769Z,47
2019-03-19T14:00:57.362Z,48
2019-03-19T14:01:59.403Z,47
2019-03-19T14:03:01.443Z,47
2019-03-19T14:04:03.493Z,46
2019-03-19T14:05:05.936Z,45
2019-03-19T14:06:07.982Z,45
2019-03-19T14:07:10.026Z,45
2019-03-19T14:08:12.082Z,45
2019-03-19T14:09:14.130Z,46
2019-03-19T14:10:16.166Z,46
2019-03-19T14:11:18.522Z,46
2019-03-19T14:12:20.559Z,46
2019-03-19T14:13:22.659Z,44
2019-03-19T14:14:24.689Z,45
2019-03-19T14:15:26.749Z,46
2019-03-19T14:16:28.802Z,47
2019-03-19T14:17:30.838Z,47
2019-03-19T14:18:33.186Z,47
2019-03-19T14:19:35.230Z,47
2019-03-19T14:20:37.272Z,46
2019-03-19T14:21:39.313Z,44
2019-03-19T14:22:41.411Z,45
2019-03-19T14:23:43.449Z,45
2019-03-19T14:24:45.498Z,46
2019-03-19T14:25:47.599Z,45
2019-03-19T14:26:51.353Z,48
2019-03-19T14:27:53.412Z,48
2019-03-19T14:28:55.494Z,49
2019-03-19T14:29:57.539Z,49
2019-03-19T14:31:10.351Z,49
2019-03-19T14:32:12.502Z,49
2019-03-19T14:33:14.549Z,49
2019-03-19T14:34:16.608Z,49
2019-03-19T14:35:18.668Z,48
2019-03-19T14:36:21.001Z,48
2019-03-19T14:37:23.056Z,49
2019-03-19T14:38:25.118Z,50
2019-03-19T14:39:27.921Z,51
2019-03-19T14:40:29.973Z,52
2019-03-19T14:41:32.025Z,53
2019-03-19T14:42:34.066Z,53
2019-03-19T14:43:36.124Z,53
2019-03-19T14:44:38.164Z,53
2019-03-19T14:45:40.213Z,53
2019-03-19T14:46:42.252Z,53
2019-03-19T14:47:44.704Z,54
2019-03-19T14:48:46.740Z,54
2019-03-19T14:49:50.816Z,54
2019-03-19T14:50:53.144Z,54